Time;durP1;ratioP1;P1;durP2;ratioP2;P2;SDS_P1;SDS_P2;PMS_P1;PMS_P2;Temp;Humidity;BMP_temperature;BMP_pressure;BME280_temperature;BME280_humidity;BME280_pressure;Samples;Min_cycle;Max_cycle;Signal;HPM_P1;HPM_P2
2021/06/25 00:01:36;;;;;;;;;;;15.40;99.90;;;;;;4840323;29;19932;-79
2021/06/25 00:04:04;;;;;;;;;;;15.40;99.90;;;;;;4840517;29;19935;-78
2021/06/25 00:06:31;;;;;;;;;;;15.40;99.90;;;;;;4825553;29;19985;-78
2021/06/25 00:08:59;;;;;;;;;;;15.30;99.90;;;;;;4825885;29;19935;-79
2021/06/25 00:11:31;;;;;;;;;;;15.30;99.90;;;;;;4825949;29;19932;-78
2021/06/25 00:13:58;;;;;;;;;;;15.20;99.90;;;;;;4840298;29;19981;-79
2021/06/25 00:16:29;;;;;;;;;;;15.20;99.90;;;;;;4840482;29;19956;-79
2021/06/25 00:18:59;;;;;;;;;;;15.10;99.90;;;;;;4825632;29;20377;-78
2021/06/25 00:21:25;;;;;;;;;;;15.10;99.90;;;;;;4825127;29;19989;-78
2021/06/25 00:23:57;;;;;;;;;;;15.10;99.90;;;;;;4826129;29;19937;-78
2021/06/25 00:26:24;;;;;;;;;;;15.00;99.90;;;;;;4824724;29;20031;-78
2021/06/25 00:28:53;;;;;;;;;;;15.00;99.90;;;;;;4840322;29;19964;-78
2021/06/25 00:31:20;;;;;;;;;;;15.00;99.90;;;;;;4840185;29;20306;-79
2021/06/25 00:33:47;;;;;;;;;;;14.90;99.90;;;;;;4825167;29;19945;-78
2021/06/25 00:36:14;;;;;;;;;;;14.90;99.90;;;;;;4825421;29;19933;-79
2021/06/25 00:38:43;;;;;;;;;;;14.90;99.90;;;;;;4840385;29;19935;-79
2021/06/25 00:41:16;;;;;;;;;;;14.90;99.90;;;;;;4825790;29;20281;-79
2021/06/25 00:43:43;;;;;;;;;;;15.00;99.90;;;;;;4839896;29;20297;-78
2021/06/25 00:46:15;;;;;;;;;;;15.00;99.90;;;;;;4825751;29;19936;-78
2021/06/25 00:48:42;;;;;;;;;;;14.90;99.90;;;;;;4840186;29;20126;-79
2021/06/25 00:51:09;;;;;;;;;;;15.00;99.90;;;;;;4824940;29;20031;-78
2021/06/25 00:53:36;;;;;;;;;;;14.90;99.90;;;;;;4824756;29;20012;-78
2021/06/25 00:56:05;;;;;;;;;;;14.90;99.90;;;;;;4825219;29;20511;-78
2021/06/25 00:58:32;;;;;;;;;;;14.80;99.90;;;;;;4825126;29;19952;-78
2021/06/25 01:01:05;;;;;;;;;;;14.80;99.90;;;;;;4825111;29;20019;-79
2021/06/25 01:03:37;;;;;;;;;;;14.70;99.90;;;;;;4854915;29;19971;-79
2021/06/25 01:06:04;;;;;;;;;;;14.70;99.90;;;;;;4824300;29;19960;-78
2021/06/25 01:08:31;;;;;;;;;;;14.70;99.90;;;;;;4824407;29;19929;-78
2021/06/25 01:10:58;;;;;;;;;;;14.70;99.90;;;;;;4839412;29;19929;-79
2021/06/25 01:13:25;;;;;;;;;;;14.70;99.90;;;;;;4839495;29;19929;-78
2021/06/25 01:15:52;;;;;;;;;;;14.70;99.90;;;;;;4839459;29;19929;-78
2021/06/25 01:18:19;;;;;;;;;;;14.70;99.90;;;;;;4824515;29;20350;-78
2021/06/25 01:20:55;;;;;;;;;;;14.60;99.90;;;;;;4825122;29;19935;-79
2021/06/25 01:23:22;;;;;;;;;;;14.60;99.90;;;;;;4839724;29;19985;-78
2021/06/25 01:25:49;;;;;;;;;;;14.60;99.90;;;;;;4839807;29;19929;-78
2021/06/25 01:28:16;;;;;;;;;;;14.60;99.90;;;;;;4839813;29;19929;-78
2021/06/25 01:30:44;;;;;;;;;;;14.60;99.90;;;;;;4839861;29;20392;-78
2021/06/25 01:33:13;;;;;;;;;;;14.60;99.90;;;;;;4839028;29;19990;-78
2021/06/25 01:35:52;;;;;;;;;;;14.70;99.90;;;;;;4839683;29;19928;-79
2021/06/25 01:38:19;;;;;;;;;;;14.60;99.90;;;;;;4824343;29;19928;-78
2021/06/25 01:40:51;;;;;;;;;;;14.60;99.90;;;;;;4824675;29;19964;-78
2021/06/25 01:43:19;;;;;;;;;;;14.60;99.90;;;;;;4823971;29;19982;-78
2021/06/25 01:45:47;;;;;;;;;;;14.60;99.90;;;;;;4840083;29;19932;-78
2021/06/25 01:48:14;;;;;;;;;;;14.70;99.90;;;;;;4824569;29;19935;-78
2021/06/25 01:50:46;;;;;;;;;;;14.70;99.90;;;;;;4825334;29;19972;-78
2021/06/25 01:53:14;;;;;;;;;;;14.70;99.90;;;;;;4839401;29;19932;-79
2021/06/25 01:55:50;;;;;;;;;;;14.70;99.90;;;;;;4827986;29;19936;-79
2021/06/25 01:58:27;;;;;;;;;;;14.70;99.90;;;;;;4828220;29;19932;-78
2021/06/25 02:01:01;;;;;;;;;;;14.80;99.90;;;;;;4842931;29;19929;-79
2021/06/25 02:03:33;;;;;;;;;;;14.70;99.90;;;;;;4828189;29;20023;-79
2021/06/25 02:06:03;;;;;;;;;;;14.70;99.90;;;;;;4844037;29;19929;-79
2021/06/25 02:08:30;;;;;;;;;;;14.70;99.90;;;;;;4827493;29;19975;-78
2021/06/25 02:10:57;;;;;;;;;;;14.70;99.90;;;;;;4827128;29;20396;-78
2021/06/25 02:13:28;;;;;;;;;;;14.70;99.90;;;;;;4828015;29;20027;-79
2021/06/25 02:15:55;;;;;;;;;;;14.80;99.90;;;;;;4827504;29;20404;-78
2021/06/25 02:18:27;;;;;;;;;;;14.70;99.90;;;;;;4857913;29;19929;-79
2021/06/25 02:20:54;;;;;;;;;;;14.70;99.90;;;;;;4842354;29;19934;-78
2021/06/25 02:23:21;;;;;;;;;;;14.70;99.90;;;;;;4827117;29;19952;-79
2021/06/25 02:25:49;;;;;;;;;;;14.70;99.90;;;;;;4842536;29;19929;-79
2021/06/25 02:28:21;;;;;;;;;;;14.70;99.90;;;;;;4827881;29;19929;-78
2021/06/25 02:30:50;;;;;;;;;;;14.60;99.90;;;;;;4827600;29;19928;-79
2021/06/25 02:33:17;;;;;;;;;;;14.60;99.90;;;;;;4842331;29;20380;-78
2021/06/25 02:35:44;;;;;;;;;;;14.60;99.90;;;;;;4826909;29;19975;-78
2021/06/25 02:38:11;;;;;;;;;;;14.60;99.90;;;;;;4827171;29;19974;-78
2021/06/25 02:40:38;;;;;;;;;;;14.60;99.90;;;;;;4842137;29;19967;-78
2021/06/25 02:43:05;;;;;;;;;;;14.60;99.90;;;;;;4826826;29;19993;-78
2021/06/25 02:45:32;;;;;;;;;;;14.60;99.90;;;;;;4842038;29;19935;-79
2021/06/25 02:47:59;;;;;;;;;;;14.60;99.90;;;;;;4826703;29;19936;-78
2021/06/25 02:50:27;;;;;;;;;;;14.70;99.90;;;;;;4826732;29;19935;-78
2021/06/25 02:52:54;;;;;;;;;;;14.60;99.90;;;;;;4841689;29;19928;-79
2021/06/25 02:55:21;;;;;;;;;;;14.60;99.90;;;;;;4826880;29;19929;-79
2021/06/25 02:57:48;;;;;;;;;;;14.60;99.90;;;;;;4826722;29;20397;-78
2021/06/25 03:00:20;;;;;;;;;;;14.60;99.90;;;;;;4827410;29;20354;-78
2021/06/25 03:02:52;;;;;;;;;;;14.60;99.90;;;;;;4826915;29;19936;-78
2021/06/25 03:05:22;;;;;;;;;;;14.60;99.90;;;;;;4841365;29;20423;-78
2021/06/25 03:07:51;;;;;;;;;;;14.50;99.90;;;;;;4826922;29;19936;-78
2021/06/25 03:10:18;;;;;;;;;;;14.50;99.90;;;;;;4826659;29;20031;-78
2021/06/25 03:12:50;;;;;;;;;;;14.50;99.90;;;;;;4841655;29;19932;-79
2021/06/25 03:15:18;;;;;;;;;;;14.50;99.90;;;;;;4826317;29;19935;-78
2021/06/25 03:17:44;;;;;;;;;;;14.50;99.90;;;;;;4841887;29;19928;-78
2021/06/25 03:20:12;;;;;;;;;;;14.50;99.90;;;;;;4827060;29;19935;-78
2021/06/25 03:22:39;;;;;;;;;;;14.50;99.90;;;;;;4841669;29;19928;-79
2021/06/25 03:25:11;;;;;;;;;;;14.50;99.90;;;;;;4827101;29;19928;-78
2021/06/25 03:27:38;;;;;;;;;;;14.40;99.90;;;;;;4841268;29;19928;-78
2021/06/25 03:30:06;;;;;;;;;;;14.40;99.90;;;;;;4826370;29;19928;-79
2021/06/25 03:32:38;;;;;;;;;;;14.40;99.90;;;;;;4841804;29;19932;-78
2021/06/25 03:35:06;;;;;;;;;;;14.40;99.90;;;;;;4826369;29;19929;-78
2021/06/25 03:37:33;;;;;;;;;;;14.40;99.90;;;;;;4841519;29;19929;-78
2021/06/25 03:40:00;;;;;;;;;;;14.50;99.90;;;;;;4826230;29;20456;-78
2021/06/25 03:42:27;;;;;;;;;;;14.50;99.90;;;;;;4840885;29;20260;-78
2021/06/25 03:44:59;;;;;;;;;;;14.50;99.90;;;;;;4826664;29;19928;-78
2021/06/25 03:47:31;;;;;;;;;;;14.50;99.90;;;;;;4826891;29;19935;-78
2021/06/25 03:49:58;;;;;;;;;;;14.50;99.90;;;;;;4826039;29;20431;-79
2021/06/25 03:52:30;;;;;;;;;;;14.50;99.90;;;;;;4840014;29;19932;-80
2021/06/25 03:55:02;;;;;;;;;;;14.50;99.90;;;;;;4826037;29;20341;-79
2021/06/25 03:57:29;;;;;;;;;;;14.50;99.90;;;;;;4840466;29;19928;-79
2021/06/25 03:59:56;;;;;;;;;;;14.50;99.90;;;;;;4840532;29;19929;-79
2021/06/25 04:02:37;;;;;;;;;;;14.50;99.90;;;;;;4841508;29;19928;-80
2021/06/25 04:05:05;;;;;;;;;;;14.50;99.90;;;;;;4840049;29;19936;-79
2021/06/25 04:07:37;;;;;;;;;;;14.50;99.90;;;;;;4825933;29;19986;-79
2021/06/25 04:10:11;;;;;;;;;;;14.40;99.90;;;;;;4825909;29;20019;-78
2021/06/25 04:12:42;;;;;;;;;;;14.40;99.90;;;;;;4827471;29;19928;-79
2021/06/25 04:15:09;;;;;;;;;;;14.50;99.90;;;;;;4824616;29;20015;-80
2021/06/25 04:17:36;;;;;;;;;;;14.50;99.90;;;;;;4821062;29;19974;-78
2021/06/25 04:20:04;;;;;;;;;;;14.50;99.90;;;;;;4837177;29;19972;-78
2021/06/25 04:22:31;;;;;;;;;;;14.50;99.90;;;;;;4836913;29;19929;-79
2021/06/25 04:25:03;;;;;;;;;;;14.50;99.90;;;;;;4823975;29;20023;-79
2021/06/25 04:27:34;;;;;;;;;;;14.50;99.90;;;;;;4837576;29;19932;-78
2021/06/25 04:30:04;;;;;;;;;;;14.60;99.90;;;;;;4823636;29;20405;-79
2021/06/25 04:32:36;;;;;;;;;;;14.60;99.90;;;;;;4822830;29;19928;-78
2021/06/25 04:35:07;;;;;;;;;;;14.60;99.90;;;;;;4830991;29;20023;-78
2021/06/25 04:37:39;;;;;;;;;;;14.60;99.90;;;;;;4842468;29;19929;-80
2021/06/25 04:40:06;;;;;;;;;;;14.60;99.90;;;;;;4842962;29;20054;-79
2021/06/25 04:42:33;;;;;;;;;;;14.70;99.90;;;;;;4828189;29;19971;-77
2021/06/25 04:45:00;;;;;;;;;;;14.70;99.90;;;;;;4828035;29;19935;-78
2021/06/25 04:47:32;;;;;;;;;;;14.60;99.90;;;;;;4845305;29;20345;-78
2021/06/25 04:49:58;;;;;;;;;;;14.70;99.90;;;;;;4825160;29;19967;-79
2021/06/25 04:52:25;;;;;;;;;;;14.70;99.90;;;;;;4825614;29;20031;-78
2021/06/25 04:54:52;;;;;;;;;;;14.80;99.90;;;;;;4841124;29;19997;-78
2021/06/25 04:57:19;;;;;;;;;;;14.80;99.90;;;;;;4826431;29;20488;-79
2021/06/25 04:59:45;;;;;;;;;;;14.80;99.90;;;;;;4841516;29;20424;-79
2021/06/25 05:02:17;;;;;;;;;;;14.80;99.90;;;;;;4826165;29;19929;-78
2021/06/25 05:04:43;;;;;;;;;;;14.80;99.90;;;;;;4841527;29;20377;-78
2021/06/25 05:07:10;;;;;;;;;;;14.80;99.90;;;;;;4841573;29;19996;-78
2021/06/25 05:09:37;;;;;;;;;;;14.80;99.90;;;;;;4825955;29;19929;-78
2021/06/25 05:12:04;;;;;;;;;;;14.80;99.90;;;;;;4826248;29;19963;-79
2021/06/25 05:14:30;;;;;;;;;;;14.70;99.90;;;;;;4825052;29;20040;-78
2021/06/25 05:16:57;;;;;;;;;;;14.70;99.90;;;;;;4824417;29;19964;-80
2021/06/25 05:19:25;;;;;;;;;;;14.80;99.90;;;;;;4840040;29;19929;-80
2021/06/25 05:21:52;;;;;;;;;;;14.80;99.90;;;;;;4840764;29;19929;-80
2021/06/25 05:24:19;;;;;;;;;;;14.80;99.90;;;;;;4839902;29;19935;-80
2021/06/25 05:26:46;;;;;;;;;;;14.80;99.90;;;;;;4825580;29;20526;-80
2021/06/25 05:29:13;;;;;;;;;;;14.70;99.90;;;;;;4842281;29;19936;-80
2021/06/25 05:31:45;;;;;;;;;;;14.80;99.90;;;;;;4828238;29;20424;-80
2021/06/25 05:34:17;;;;;;;;;;;14.80;99.90;;;;;;4827807;29;19936;-80
2021/06/25 05:36:44;;;;;;;;;;;14.90;99.90;;;;;;4843214;29;20367;-80
2021/06/25 05:39:11;;;;;;;;;;;14.90;99.90;;;;;;4828235;29;19929;-80
2021/06/25 05:41:38;;;;;;;;;;;14.90;99.90;;;;;;4843464;29;19929;-80
2021/06/25 05:46:59;;;;;;;;;;;15.00;99.90;;;;;;4827507;29;19974;-80
2021/06/25 05:49:32;;;;;;;;;;;15.00;99.90;;;;;;4824453;29;19929;-80
2021/06/25 05:51:58;;;;;;;;;;;15.10;99.90;;;;;;4839241;29;19929;-80
2021/06/25 05:57:22;;;;;;;;;;;15.40;99.90;;;;;;4881923;23;19928;-79
2021/06/25 05:59:49;;;;;;;;;;;15.50;99.90;;;;;;4883642;29;19935;-79
2021/06/25 06:02:16;;;;;;;;;;;15.50;99.90;;;;;;4883223;29;20176;-79
2021/06/25 06:07:43;;;;;;;;;;;15.70;99.90;;;;;;4878489;23;19935;-79
2021/06/25 06:10:10;;;;;;;;;;;15.80;99.90;;;;;;4849058;29;19928;-79
2021/06/25 06:12:37;;;;;;;;;;;15.90;99.90;;;;;;4849454;29;20292;-80
2021/06/25 06:15:05;;;;;;;;;;;15.90;99.90;;;;;;4864010;29;19928;-79
2021/06/25 06:17:35;;;;;;;;;;;16.00;99.90;;;;;;4848638;29;20376;-80
2021/06/25 06:20:03;;;;;;;;;;;16.10;99.90;;;;;;4849222;29;19964;-79
2021/06/25 06:33:59;;;;;;;;;;;16.10;99.90;;;;;;4881009;29;19939;-79
2021/06/25 06:36:33;;;;;;;;;;;16.20;99.90;;;;;;4865628;29;20443;-79
2021/06/25 06:39:02;;;;;;;;;;;16.20;99.90;;;;;;4855881;29;19959;-79
2021/06/25 06:41:30;;;;;;;;;;;16.20;99.90;;;;;;4862462;29;19928;-80
2021/06/25 06:43:58;;;;;;;;;;;16.30;99.90;;;;;;4848908;29;19928;-79
2021/06/25 06:46:29;;;;;;;;;;;16.30;99.90;;;;;;4849847;29;19938;-80
2021/06/25 06:48:57;;;;;;;;;;;16.30;99.90;;;;;;4849100;29;19928;-80
2021/06/25 06:51:29;;;;;;;;;;;16.30;99.90;;;;;;4849485;29;19938;-80
2021/06/25 06:56:57;;;;;;;;;;;16.30;99.90;;;;;;5795084;23;19951;-79
2021/06/25 06:59:24;;;;;;;;;;;16.30;99.90;;;;;;4828958;29;19934;-80
2021/06/25 07:01:57;;;;;;;;;;;16.30;99.90;;;;;;4844281;29;20411;-80
2021/06/25 07:04:24;;;;;;;;;;;16.30;99.90;;;;;;4829491;29;19961;-80
2021/06/25 07:06:52;;;;;;;;;;;16.40;99.90;;;;;;4829122;29;20315;-80
2021/06/25 07:09:19;;;;;;;;;;;16.40;99.90;;;;;;4828983;29;20045;-80
2021/06/25 07:11:47;;;;;;;;;;;16.50;99.90;;;;;;4843920;29;20414;-80
2021/06/25 07:46:39;;;;;;;;;;;16.60;99.90;;;;;;4824543;29;19935;-79
2021/06/25 07:49:06;;;;;;;;;;;16.60;99.90;;;;;;4824879;29;19929;-78
2021/06/25 07:51:34;;;;;;;;;;;16.70;99.90;;;;;;4855062;29;19933;-78
2021/06/25 07:54:01;;;;;;;;;;;16.70;99.90;;;;;;4854819;29;19985;-79
2021/06/25 07:56:33;;;;;;;;;;;16.70;99.90;;;;;;4839046;29;19995;-79
2021/06/25 07:59:00;;;;;;;;;;;16.70;99.90;;;;;;4809861;29;20016;-78
2021/06/25 08:01:28;;;;;;;;;;;16.70;99.90;;;;;;4839791;29;19928;-78
2021/06/25 08:03:55;;;;;;;;;;;16.80;99.90;;;;;;4824605;29;19989;-78
2021/06/25 08:06:22;;;;;;;;;;;16.80;99.90;;;;;;4839857;29;19936;-78
2021/06/25 08:08:49;;;;;;;;;;;16.90;99.90;;;;;;4839568;29;19933;-79
2021/06/25 08:11:17;;;;;;;;;;;17.00;99.90;;;;;;4824462;29;20392;-81
2021/06/25 08:21:18;;;;;;;;;;;17.50;99.90;;;;;;4823229;29;22724;-78
2021/06/25 08:32:52;;;;;;;;;;;17.50;99.90;;;;;;5054544;23;19929;-79
2021/06/25 08:35:21;;;;;;;;;;;17.40;99.90;;;;;;4842491;29;19929;-80
2021/06/25 08:37:48;;;;;;;;;;;17.50;99.90;;;;;;4827573;29;19971;-79
2021/06/25 08:40:16;;;;;;;;;;;17.40;99.90;;;;;;4842412;29;19999;-79
2021/06/25 08:42:43;;;;;;;;;;;17.30;99.90;;;;;;4843360;29;19928;-79
2021/06/25 08:45:11;;;;;;;;;;;17.40;99.90;;;;;;4842155;29;19981;-79
2021/06/25 08:47:39;;;;;;;;;;;17.50;99.90;;;;;;4827133;29;19968;-79
2021/06/25 08:50:07;;;;;;;;;;;17.50;99.90;;;;;;4827287;29;20326;-79
2021/06/25 08:52:34;;;;;;;;;;;17.70;99.90;;;;;;4827473;29;20033;-79
2021/06/25 08:55:02;;;;;;;;;;;17.90;99.90;;;;;;5136512;23;19934;-79
2021/06/25 08:57:34;;;;;;;;;;;18.10;99.90;;;;;;4862267;29;19981;-81
2021/06/25 09:00:03;;;;;;;;;;;18.30;99.90;;;;;;4849680;29;20426;-80
2021/06/25 09:02:31;;;;;;;;;;;18.40;99.90;;;;;;4848967;29;19932;-81
2021/06/25 09:04:58;;;;;;;;;;;18.30;99.90;;;;;;4853393;29;20027;-81
2021/06/25 09:07:54;;;;;;;;;;;18.10;99.90;;;;;;4868821;29;19982;-81
2021/06/25 09:10:32;;;;;;;;;;;17.80;99.90;;;;;;4852257;29;19928;-82
2021/06/25 09:13:14;;;;;;;;;;;17.60;99.90;;;;;;4853174;29;19932;-81
2021/06/25 09:21:37;;;;;;;;;;;17.90;99.90;;;;;;5116213;23;19929;-81
2021/06/25 09:34:14;;;;;;;;;;;18.50;99.90;;;;;;5027757;23;19951;-82
2021/06/25 09:36:42;;;;;;;;;;;18.60;99.90;;;;;;4854488;29;19965;-82
2021/06/25 09:39:22;;;;;;;;;;;18.70;99.90;;;;;;4848703;29;19935;-79
2021/06/25 09:41:53;;;;;;;;;;;18.60;99.90;;;;;;4860935;29;19935;-78
2021/06/25 09:44:20;;;;;;;;;;;18.50;99.90;;;;;;4861428;29;19989;-79
2021/06/25 09:46:51;;;;;;;;;;;18.40;99.90;;;;;;4847409;29;20372;-79
2021/06/25 09:49:44;;;;;;;;;;;18.40;99.90;;;;;;4846871;29;20031;-79
2021/06/25 09:52:11;;;;;;;;;;;18.40;99.90;;;;;;4862022;29;20490;-80
2021/06/25 09:54:38;;;;;;;;;;;18.50;99.90;;;;;;4863142;29;20019;-79
2021/06/25 09:57:13;;;;;;;;;;;18.50;99.90;;;;;;4863015;29;20387;-80
2021/06/25 10:02:19;;;;;;;;;;;18.40;99.90;;;;;;4863306;29;19928;-80
2021/06/25 10:04:51;;;;;;;;;;;18.40;99.90;;;;;;4864039;29;19932;-80
2021/06/25 10:07:20;;;;;;;;;;;18.30;99.90;;;;;;4847859;29;19984;-80
2021/06/25 10:09:49;;;;;;;;;;;18.30;99.90;;;;;;4863240;29;19963;-80
2021/06/25 10:12:18;;;;;;;;;;;18.10;99.90;;;;;;4863102;29;20380;-80
2021/06/25 10:14:46;;;;;;;;;;;18.10;99.90;;;;;;4861827;29;19928;-80
2021/06/25 10:17:14;;;;;;;;;;;18.10;99.90;;;;;;4862790;29;20443;-80
2021/06/25 10:19:45;;;;;;;;;;;18.10;99.90;;;;;;4847360;29;19953;-79
2021/06/25 10:22:20;;;;;;;;;;;18.20;99.90;;;;;;4862824;29;20459;-80
2021/06/25 10:24:53;;;;;;;;;;;18.30;99.90;;;;;;4863651;29;19939;-79
2021/06/25 10:27:21;;;;;;;;;;;18.40;99.90;;;;;;4862608;29;19932;-80
2021/06/25 10:29:48;;;;;;;;;;;18.60;99.90;;;;;;4862775;29;19928;-80
2021/06/25 10:32:17;;;;;;;;;;;18.80;99.90;;;;;;4862155;29;19928;-80
2021/06/25 10:34:44;;;;;;;;;;;19.10;99.90;;;;;;4862139;29;19976;-79
2021/06/25 10:37:29;;;;;;;;;;;19.40;99.90;;;;;;4862087;29;19928;-79
2021/06/25 10:39:57;;;;;;;;;;;19.60;99.90;;;;;;4865525;29;19934;-79
2021/06/25 10:42:44;;;;;;;;;;;19.90;99.90;;;;;;4880319;29;20332;-79
2021/06/25 10:45:12;;;;;;;;;;;20.10;99.90;;;;;;4865252;29;20042;-80
2021/06/25 10:47:51;;;;;;;;;;;20.10;99.90;;;;;;4865542;29;19928;-79
2021/06/25 10:50:24;;;;;;;;;;;20.20;99.90;;;;;;4865517;29;19932;-80
2021/06/25 10:53:05;;;;;;;;;;;20.10;99.90;;;;;;4866197;29;19978;-80
2021/06/25 10:55:44;;;;;;;;;;;19.90;99.90;;;;;;4866448;29;19950;-80
2021/06/25 10:58:22;;;;;;;;;;;19.60;99.90;;;;;;4866459;29;19928;-81
2021/06/25 11:00:53;;;;;;;;;;;19.10;99.90;;;;;;4866132;29;19936;-80
2021/06/25 11:03:35;;;;;;;;;;;18.50;99.90;;;;;;4866179;29;20319;-81
2021/06/25 11:06:06;;;;;;;;;;;18.10;99.90;;;;;;4933270;23;19928;-80
2021/06/25 11:08:33;;;;;;;;;;;17.80;99.90;;;;;;4844587;29;19929;-81
2021/06/25 11:11:00;;;;;;;;;;;17.50;99.90;;;;;;4845000;29;19935;-80
2021/06/25 11:13:35;;;;;;;;;;;17.40;99.90;;;;;;4843719;29;19929;-81
2021/06/25 11:16:18;;;;;;;;;;;17.40;99.90;;;;;;4825104;29;19929;-81
2021/06/25 11:18:45;;;;;;;;;;;17.40;99.90;;;;;;4827298;29;19929;-80
2021/06/25 11:21:12;;;;;;;;;;;17.40;99.90;;;;;;4813342;29;19936;-81
2021/06/25 11:23:40;;;;;;;;;;;17.50;99.90;;;;;;4828516;29;20313;-81
2021/06/25 11:26:51;;;;;;;;;;;17.50;99.90;;;;;;4949836;23;19935;-81
2021/06/25 11:29:18;;;;;;;;;;;17.80;99.90;;;;;;4867873;29;19928;-80
2021/06/25 11:32:07;;;;;;;;;;;18.10;99.90;;;;;;4867701;29;19934;-80
2021/06/25 11:52:26;;;;;;;;;;;18.80;99.90;;;;;;2163749;23;20381;-81
2021/06/25 11:57:44;;;;;;;;;;;18.10;99.90;;;;;;4889185;23;19936;-80
2021/06/25 12:00:19;;;;;;;;;;;17.80;99.90;;;;;;4846067;29;19928;-79
2021/06/25 12:02:52;;;;;;;;;;;17.40;99.90;;;;;;4846115;29;20395;-79
2021/06/25 12:05:28;;;;;;;;;;;17.20;99.90;;;;;;5051037;23;19934;-79
2021/06/25 12:08:04;;;;;;;;;;;17.20;99.90;;;;;;4864275;29;19932;-79
2021/06/25 12:10:31;;;;;;;;;;;17.30;99.90;;;;;;4879933;29;19928;-79
2021/06/25 12:13:04;;;;;;;;;;;17.30;99.90;;;;;;4896302;29;20438;-79
2021/06/25 12:15:33;;;;;;;;;;;17.30;99.90;;;;;;4864144;29;19927;-78
2021/06/25 12:18:00;;;;;;;;;;;17.30;99.90;;;;;;4879461;29;20306;-79
2021/06/25 12:20:32;;;;;;;;;;;17.30;99.90;;;;;;4865139;29;19927;-78
2021/06/25 12:23:05;;;;;;;;;;;17.30;99.90;;;;;;4879910;29;20387;-78
2021/06/25 12:25:36;;;;;;;;;;;17.20;99.90;;;;;;4880151;29;19928;-79
2021/06/25 12:28:07;;;;;;;;;;;17.20;99.90;;;;;;4881160;29;20069;-79
2021/06/25 12:30:44;;;;;;;;;;;17.20;99.90;;;;;;4865189;29;19931;-80
2021/06/25 12:33:11;;;;;;;;;;;17.20;99.90;;;;;;4869288;29;19929;-79
2021/06/25 12:35:41;;;;;;;;;;;17.10;99.90;;;;;;4917404;23;19936;-80
2021/06/25 12:38:09;;;;;;;;;;;17.00;99.90;;;;;;4841439;29;19929;-79
2021/06/25 12:40:36;;;;;;;;;;;16.90;99.90;;;;;;4827030;29;19978;-80
2021/06/25 12:43:04;;;;;;;;;;;16.90;99.90;;;;;;4842231;29;19978;-79
2021/06/25 12:48:20;;;;;;;;;;;16.90;99.90;;;;;;5308406;23;20023;-79
2021/06/25 12:50:47;;;;;;;;;;;16.80;99.90;;;;;;4826920;29;19935;-79
2021/06/25 12:53:23;;;;;;;;;;;16.90;99.90;;;;;;4841912;29;19928;-79
2021/06/25 12:55:50;;;;;;;;;;;16.90;99.90;;;;;;4826803;29;19928;-79
2021/06/25 12:58:19;;;;;;;;;;;17.00;99.90;;;;;;4826865;29;20373;-79
2021/06/25 13:00:50;;;;;;;;;;;17.10;99.90;;;;;;4826767;29;19935;-79
2021/06/25 13:03:17;;;;;;;;;;;17.10;99.90;;;;;;4842297;29;20031;-79
2021/06/25 13:05:45;;;;;;;;;;;17.20;99.90;;;;;;4948026;24;19979;-80
2021/06/25 13:08:22;;;;;;;;;;;17.20;99.90;;;;;;4840542;29;20031;-80
2021/06/25 13:10:50;;;;;;;;;;;17.40;99.90;;;;;;4828630;29;19958;-79
2021/06/25 13:13:21;;;;;;;;;;;17.40;99.90;;;;;;4828843;29;20005;-80
2021/06/25 13:15:49;;;;;;;;;;;17.50;99.90;;;;;;4812288;29;20452;-80
2021/06/25 13:18:20;;;;;;;;;;;17.40;99.90;;;;;;4792045;29;19929;-80
2021/06/25 13:21:10;;;;;;;;;;;17.50;99.90;;;;;;4836598;29;20409;-80
2021/06/25 13:23:38;;;;;;;;;;;17.70;99.90;;;;;;4805747;29;20034;-80
2021/06/25 13:26:09;;;;;;;;;;;17.90;99.90;;;;;;4839534;29;19933;-80
2021/06/25 13:28:36;;;;;;;;;;;18.10;99.90;;;;;;4825343;29;19936;-79
2021/06/25 13:31:07;;;;;;;;;;;18.10;99.90;;;;;;4807767;29;20397;-80
2021/06/25 13:33:41;;;;;;;;;;;18.20;99.90;;;;;;4837022;29;20415;-79
2021/06/25 13:36:09;;;;;;;;;;;18.30;99.90;;;;;;4806972;29;19973;-79
2021/06/25 13:38:36;;;;;;;;;;;18.40;99.90;;;;;;4797983;29;19964;-79
2021/06/25 13:41:15;;;;;;;;;;;18.40;99.90;;;;;;4815524;29;20400;-79
2021/06/25 13:43:44;;;;;;;;;;;18.40;99.90;;;;;;4823353;29;19955;-80
2021/06/25 13:46:15;;;;;;;;;;;18.30;99.90;;;;;;4834469;29;19940;-79
2021/06/25 13:48:43;;;;;;;;;;;18.20;99.90;;;;;;4810674;29;19929;-80
2021/06/25 13:51:13;;;;;;;;;;;18.10;99.90;;;;;;4829969;29;20427;-81
2021/06/25 13:53:42;;;;;;;;;;;18.00;99.90;;;;;;4828740;29;19929;-80
2021/06/25 13:56:36;;;;;;;;;;;17.70;99.90;;;;;;4811982;29;19939;-81
2021/06/25 13:59:09;;;;;;;;;;;17.50;99.90;;;;;;4828528;29;19937;-80
2021/06/25 14:01:38;;;;;;;;;;;17.40;99.90;;;;;;4827104;29;19928;-80
2021/06/25 14:10:22;;;;;;;;;;;17.10;99.90;;;;;;5240027;23;19928;-80
2021/06/25 14:12:50;;;;;;;;;;;17.20;99.90;;;;;;4863366;29;19999;-80
2021/06/25 14:15:18;;;;;;;;;;;17.20;99.90;;;;;;4847993;29;20412;-80
2021/06/25 14:17:55;;;;;;;;;;;17.20;99.90;;;;;;4849817;29;19971;-81
2021/06/25 14:20:23;;;;;;;;;;;17.30;99.90;;;;;;4871798;29;19962;-80
2021/06/25 14:22:51;;;;;;;;;;;17.50;99.90;;;;;;4863207;29;19934;-80
2021/06/25 14:25:19;;;;;;;;;;;17.70;99.90;;;;;;4848238;29;20365;-79
2021/06/25 14:27:47;;;;;;;;;;;18.00;99.90;;;;;;4848413;29;19928;-80
2021/06/25 14:30:15;;;;;;;;;;;18.20;99.90;;;;;;4863643;29;19984;-80
2021/06/25 14:32:43;;;;;;;;;;;18.30;99.90;;;;;;4848488;29;19928;-80
2021/06/25 14:35:13;;;;;;;;;;;18.40;99.90;;;;;;4864204;29;19928;-80
2021/06/25 14:37:41;;;;;;;;;;;18.40;99.90;;;;;;4863732;29;19928;-81
2021/06/25 14:40:08;;;;;;;;;;;18.50;99.90;;;;;;4863641;29;20395;-81
2021/06/25 14:42:38;;;;;;;;;;;18.50;99.90;;;;;;4850058;29;19931;-80
2021/06/25 14:45:10;;;;;;;;;;;18.40;99.90;;;;;;4864588;29;19932;-80
2021/06/25 14:47:38;;;;;;;;;;;18.40;99.90;;;;;;4848672;29;20379;-80
2021/06/25 14:50:06;;;;;;;;;;;18.40;99.90;;;;;;4863667;29;19932;-80
2021/06/25 14:52:34;;;;;;;;;;;18.20;99.90;;;;;;4863504;29;19928;-81
2021/06/25 14:58:04;;;;;;;;;;;18.20;99.90;;;;;;5346467;23;19928;-79
2021/06/25 15:00:31;;;;;;;;;;;18.10;99.90;;;;;;4830988;29;19929;-80
2021/06/25 15:03:04;;;;;;;;;;;18.00;99.90;;;;;;4843651;29;19932;-80
2021/06/25 15:05:33;;;;;;;;;;;18.10;99.90;;;;;;4827596;29;19929;-80
2021/06/25 15:08:01;;;;;;;;;;;18.10;99.90;;;;;;4827699;29;20027;-80
2021/06/25 15:10:29;;;;;;;;;;;18.00;99.90;;;;;;4827216;29;19929;-80
2021/06/25 15:12:57;;;;;;;;;;;18.00;99.90;;;;;;4827977;29;19956;-80
2021/06/25 15:15:25;;;;;;;;;;;17.90;99.90;;;;;;4843047;29;19928;-80
2021/06/25 15:17:53;;;;;;;;;;;18.00;99.90;;;;;;4828501;29;20019;-80
2021/06/25 15:20:21;;;;;;;;;;;18.00;99.90;;;;;;4828535;29;19998;-79
2021/06/25 15:22:49;;;;;;;;;;;18.00;99.90;;;;;;4828330;29;19928;-80
2021/06/25 15:25:18;;;;;;;;;;;18.10;99.90;;;;;;4843108;29;19970;-80
2021/06/25 15:27:46;;;;;;;;;;;18.10;99.90;;;;;;4843398;29;19928;-80
2021/06/25 15:30:20;;;;;;;;;;;18.20;99.90;;;;;;4828830;29;19934;-79
2021/06/25 15:32:48;;;;;;;;;;;18.30;99.90;;;;;;4843344;29;19936;-80
2021/06/25 15:35:15;;;;;;;;;;;18.60;99.90;;;;;;4828003;29;19929;-79
2021/06/25 15:37:44;;;;;;;;;;;19.00;99.90;;;;;;4828440;29;19981;-80
2021/06/25 15:40:12;;;;;;;;;;;19.70;99.90;;;;;;4828317;29;19928;-80
2021/06/25 15:42:39;;;;;;;;;;;20.00;99.90;;;;;;4843165;29;19973;-80
2021/06/25 15:45:08;;;;;;;;;;;20.30;99.90;;;;;;4828000;29;19933;-80
2021/06/25 15:47:36;;;;;;;;;;;20.40;99.90;;;;;;4828167;29;19936;-80
2021/06/25 15:50:05;;;;;;;;;;;20.40;99.90;;;;;;4828125;29;20414;-80
2021/06/25 15:52:33;;;;;;;;;;;20.30;99.90;;;;;;4842824;29;19928;-79
2021/06/25 15:55:01;;;;;;;;;;;20.50;99.90;;;;;;4842730;29;19929;-80
2021/06/25 15:57:28;;;;;;;;;;;20.70;99.90;;;;;;4827844;29;19967;-80
2021/06/25 15:59:56;;;;;;;;;;;21.30;99.90;;;;;;4827433;29;19928;-80
2021/06/25 16:02:32;;;;;;;;;;;22.20;99.90;;;;;;4842174;29;19928;-81
2021/06/25 16:05:00;;;;;;;;;;;22.90;99.90;;;;;;4827142;29;20336;-80
2021/06/25 16:07:34;;;;;;;;;;;22.60;99.90;;;;;;4842447;29;19928;-80
2021/06/25 16:10:03;;;;;;;;;;;22.70;99.90;;;;;;4842380;29;20444;-81
2021/06/25 16:12:31;;;;;;;;;;;22.40;99.90;;;;;;4826453;29;20015;-80
2021/06/25 16:14:59;;;;;;;;;;;22.30;99.90;;;;;;4842219;29;19929;-80
2021/06/25 16:17:27;;;;;;;;;;;22.20;99.90;;;;;;4827469;29;19928;-81
2021/06/25 16:19:55;;;;;;;;;;;22.30;99.90;;;;;;4842393;29;19985;-80
2021/06/25 16:22:23;;;;;;;;;;;22.20;99.90;;;;;;4827524;29;19973;-80
2021/06/25 16:24:50;;;;;;;;;;;22.30;99.90;;;;;;4842410;29;20363;-81
2021/06/25 16:27:20;;;;;;;;;;;22.60;99.90;;;;;;4843401;29;19929;-80
2021/06/25 16:29:53;;;;;;;;;;;22.50;99.90;;;;;;4843041;29;20027;-81
2021/06/25 16:32:20;;;;;;;;;;;22.70;99.90;;;;;;4828299;29;19929;-80
2021/06/25 16:34:47;;;;;;;;;;;23.10;99.90;;;;;;4842500;29;19967;-80